Time;durP1;ratioP1;P1;durP2;ratioP2;P2;SDS_P1;SDS_P2;PMS_P1;PMS_P2;Temp;Humidity;BMP_temperature;BMP_pressure;BME280_temperature;BME280_humidity;BME280_pressure;Samples;Min_cycle;Max_cycle;Signal;HPM_P1;HPM_P2
2022/03/07 00:00:23;;;;;;;9.43;8.07;;;;;;;-2.10;90.30;102728.28;4992400;28;20026;-62
2022/03/07 00:02:49;;;;;;;12.07;7.10;;;;;;;-2.11;90.66;102730.66;4992416;28;20475;-62
2022/03/07 00:05:15;;;;;;;9.97;7.70;;;;;;;-2.15;90.22;102726.84;4992224;28;20078;-61
2022/03/07 00:07:41;;;;;;;8.83;7.30;;;;;;;-2.17;90.02;102729.22;4992142;28;20073;-61
2022/03/07 00:10:06;;;;;;;9.40;8.20;;;;;;;-2.19;90.61;102725.59;4992387;28;20490;-61
2022/03/07 00:12:32;;;;;;;8.50;7.60;;;;;;;-2.20;90.83;102728.88;4992211;28;20033;-60
2022/03/07 00:14:57;;;;;;;8.00;7.20;;;;;;;-2.22;90.55;102717.63;4992061;28;20034;-60
2022/03/07 00:17:22;;;;;;;8.50;7.63;;;;;;;-2.24;90.78;102721.63;4992061;28;20109;-61
2022/03/07 00:19:48;;;;;;;9.50;8.60;;;;;;;-2.25;91.21;102724.91;4992217;28;20105;-59
2022/03/07 00:22:13;;;;;;;9.57;8.57;;;;;;;-2.27;91.03;102717.81;4991969;28;20061;-62
2022/03/07 00:24:38;;;;;;;10.47;7.97;;;;;;;-2.28;90.91;102719.44;4992065;28;20120;-61
2022/03/07 00:27:04;;;;;;;13.43;9.63;;;;;;;-2.30;91.25;102715.81;4992089;28;20405;-61
2022/03/07 00:29:29;;;;;;;10.40;9.13;;;;;;;-2.32;91.03;102718.19;4992006;28;20023;-62
2022/03/07 00:31:55;;;;;;;10.30;8.47;;;;;;;-2.34;91.13;102724.72;4992091;28;20049;-62
2022/03/07 00:34:20;;;;;;;13.50;9.00;;;;;;;-2.36;91.15;102732.91;4992012;28;20471;-62
2022/03/07 00:36:45;;;;;;;9.30;7.90;;;;;;;-2.35;91.98;102729.63;4991679;28;20027;-62
2022/03/07 00:39:11;;;;;;;13.40;8.20;;;;;;;-2.36;91.99;102732.91;4992060;28;20297;-62
2022/03/07 00:41:36;;;;;;;9.37;7.53;;;;;;;-2.39;91.38;102736.00;4991770;28;20109;-61
2022/03/07 00:44:01;;;;;;;9.23;8.10;;;;;;;-2.39;91.81;102732.56;4989729;28;20030;-61
2022/03/07 00:46:27;;;;;;;9.30;7.90;;;;;;;-2.41;91.45;102733.28;4991463;28;20026;-62
2022/03/07 00:48:52;;;;;;;8.73;7.83;;;;;;;-2.41;91.21;102735.81;4991781;28;20080;-61
2022/03/07 00:51:19;;;;;;;9.47;7.80;;;;;;;-2.42;92.04;102741.66;4992141;28;20604;-61
2022/03/07 00:53:44;;;;;;;8.67;7.70;;;;;;;-2.43;92.28;102733.84;4992184;28;20057;-62
2022/03/07 00:56:10;;;;;;;8.30;7.53;;;;;;;-2.47;91.61;102730.06;4991690;28;20054;-62
2022/03/07 00:58:35;;;;;;;8.53;7.30;;;;;;;-2.48;91.67;102734.97;4991379;28;20026;-62
2022/03/07 01:01:01;;;;;;;7.93;7.23;;;;;;;-2.51;92.08;102740.56;4990781;28;20026;-61
2022/03/07 01:03:26;;;;;;;8.73;7.90;;;;;;;-2.56;91.30;102732.44;4991601;28;20101;-59
2022/03/07 01:05:51;;;;;;;8.50;7.37;;;;;;;-2.58;91.38;102740.59;4991291;28;20042;-61
2022/03/07 01:08:17;;;;;;;9.07;8.13;;;;;;;-2.60;92.17;102731.88;4991302;28;20030;-61
2022/03/07 01:10:42;;;;;;;8.53;7.73;;;;;;;-2.61;92.17;102737.72;4991380;28;20018;-59
2022/03/07 01:13:08;;;;;;;8.70;7.77;;;;;;;-2.63;92.36;102739.16;4991332;28;20083;-62
2022/03/07 01:15:33;;;;;;;9.97;7.43;;;;;;;-2.68;91.95;102736.97;4990991;28;20105;-62
2022/03/07 01:17:59;;;;;;;8.33;7.53;;;;;;;-2.69;92.92;102739.34;4991099;28;20026;-62
2022/03/07 01:20:26;;;;;;;9.60;8.17;;;;;;;-2.71;93.15;102746.78;4991096;28;20502;-61
2022/03/07 01:22:51;;;;;;;9.10;7.70;;;;;;;-2.72;93.35;102739.00;4990723;28;20070;-60
2022/03/07 01:25:17;;;;;;;10.20;8.17;;;;;;;-2.73;93.98;102738.06;4991001;28;20054;-60
2022/03/07 01:27:42;;;;;;;8.63;7.73;;;;;;;-2.75;93.57;102737.00;4991036;28;20034;-61
2022/03/07 01:30:08;;;;;;;9.07;8.17;;;;;;;-2.77;93.26;102746.09;4990722;28;20022;-61
2022/03/07 01:32:34;;;;;;;8.80;7.80;;;;;;;-2.78;93.43;102739.19;4990654;28;20018;-61
2022/03/07 01:35:00;;;;;;;9.70;7.53;;;;;;;-2.81;93.89;102739.75;4990801;28;20026;-59
2022/03/07 01:37:25;;;;;;;9.90;8.40;;;;;;;-2.83;93.26;102730.13;4990911;28;20029;-60
2022/03/07 01:39:51;;;;;;;9.03;8.13;;;;;;;-2.84;93.39;102728.31;4989744;28;20281;-60
2022/03/07 01:42:16;;;;;;;8.50;7.70;;;;;;;-2.85;93.50;102731.56;4990587;28;20468;-61
2022/03/07 01:44:42;;;;;;;9.37;8.23;;;;;;;-2.88;93.38;102737.22;4990536;28;20041;-60
2022/03/07 01:47:07;;;;;;;10.43;9.07;;;;;;;-2.90;93.16;102729.38;4990535;28;20379;-61
2022/03/07 01:49:33;;;;;;;11.43;8.77;;;;;;;-2.91;93.37;102732.66;4990753;28;20022;-62
2022/03/07 01:51:59;;;;;;;9.97;8.53;;;;;;;-2.94;93.63;102724.69;4990850;28;20031;-61
2022/03/07 01:54:25;;;;;;;12.83;8.03;;;;;;;-2.93;93.81;102731.56;4989984;28;20030;-61
2022/03/07 01:56:52;;;;;;;9.47;8.00;;;;;;;-2.96;93.83;102733.75;4990520;28;20084;-60
2022/03/07 01:59:23;;;;;;;10.60;8.07;;;;;;;-3.00;93.24;102731.56;4990569;28;20026;-61
2022/03/07 02:01:50;;;;;;;8.90;7.97;;;;;;;-3.03;93.59;102731.22;4989928;28;20023;-62
2022/03/07 02:04:16;;;;;;;8.80;7.97;;;;;;;-3.06;93.63;102728.34;4990196;28;20584;-61
2022/03/07 02:06:41;;;;;;;8.43;7.57;;;;;;;-3.09;93.73;102726.31;4990175;28;20514;-61
2022/03/07 02:09:08;;;;;;;9.73;8.37;;;;;;;-3.11;93.38;102724.34;4990313;28;20041;-61
2022/03/07 02:11:34;;;;;;;11.03;8.20;;;;;;;-3.14;93.84;102722.34;4990349;28;20030;-61
2022/03/07 02:14:30;;;;;;;11.53;8.43;;;;;;;-3.14;94.04;102720.72;4990199;28;20022;-62
2022/03/07 02:16:56;;;;;;;10.10;8.47;;;;;;;-3.16;93.68;102714.56;4929209;29;20046;-59
2022/03/07 02:19:21;;;;;;;9.77;8.43;;;;;;;-3.16;93.55;102717.09;4929727;29;20043;-61
2022/03/07 02:21:49;;;;;;;10.77;9.17;;;;;;;-3.17;94.54;102720.38;4929726;29;20039;-61
2022/03/07 02:24:16;;;;;;;12.27;9.50;;;;;;;-3.18;94.87;102716.00;4932379;29;20118;-60
2022/03/07 02:26:42;;;;;;;10.47;9.37;;;;;;;-3.20;94.87;102716.56;4931753;29;20484;-61
2022/03/07 02:29:09;;;;;;;10.07;8.97;;;;;;;-3.22;94.78;102713.81;4929098;29;20028;-58
2022/03/07 02:31:36;;;;;;;10.50;9.40;;;;;;;-3.25;95.13;102700.78;4930012;29;20035;-61
2022/03/07 02:34:02;;;;;;;11.47;9.57;;;;;;;-3.26;95.27;102711.66;4948474;29;20051;-59
2022/03/07 02:36:27;;;;;;;12.43;9.60;;;;;;;-3.26;95.55;102706.59;4948735;29;20034;-62
2022/03/07 02:38:53;;;;;;;10.77;9.23;;;;;;;-3.26;95.08;102709.13;4948373;29;20035;-61
2022/03/07 02:41:19;;;;;;;9.93;8.97;;;;;;;-3.28;95.38;102713.13;4948313;29;20515;-60
2022/03/07 02:43:44;;;;;;;12.57;10.30;;;;;;;-3.28;95.36;102713.13;4948572;29;20503;-62
2022/03/07 02:46:09;;;;;;;10.23;9.10;;;;;;;-3.30;94.87;102712.03;4947978;29;20431;-60
2022/03/07 02:48:35;;;;;;;10.33;9.23;;;;;;;-3.31;95.23;102716.19;4948159;29;20031;-61
2022/03/07 02:51:00;;;;;;;10.23;9.17;;;;;;;-3.32;95.15;102710.94;4948240;29;20038;-61
2022/03/07 02:53:26;;;;;;;11.83;9.20;;;;;;;-3.32;95.88;102721.06;4981165;28;20038;-59
2022/03/07 02:55:52;;;;;;;11.27;8.83;;;;;;;-3.35;94.88;102715.66;5009236;28;20510;-61
2022/03/07 02:58:18;;;;;;;12.47;9.67;;;;;;;-3.38;95.07;102717.09;5009183;28;20490;-62
2022/03/07 03:00:43;;;;;;;10.67;9.47;;;;;;;-3.41;95.03;102711.66;5008991;28;20025;-61
2022/03/07 03:03:08;;;;;;;10.40;9.30;;;;;;;-3.42;96.15;102703.88;5009182;28;20037;-60
2022/03/07 03:05:34;;;;;;;9.83;8.80;;;;;;;-3.45;96.10;102709.47;5009125;28;20405;-61
2022/03/07 03:07:59;;;;;;;14.73;10.40;;;;;;;-3.48;96.43;102704.03;5011519;28;20061;-58
2022/03/07 03:10:25;;;;;;;12.17;9.60;;;;;;;-3.48;97.29;102703.13;5013045;28;20433;-62
2022/03/07 03:12:51;;;;;;;10.43;9.53;;;;;;;-3.52;96.25;102697.69;5013075;28;20022;-62
2022/03/07 03:15:17;;;;;;;11.07;9.70;;;;;;;-3.51;97.22;102704.56;5012942;28;20026;-62
2022/03/07 03:17:44;;;;;;;11.07;9.93;;;;;;;-3.50;96.62;102705.47;5013427;28;20299;-61
2022/03/07 03:20:11;;;;;;;10.07;8.97;;;;;;;-3.52;96.58;102699.31;5011623;28;20037;-61
2022/03/07 03:22:40;;;;;;;10.97;9.73;;;;;;;-3.52;97.10;102712.91;5012526;28;20386;-61
2022/03/07 03:25:07;;;;;;;10.87;9.77;;;;;;;-3.53;97.08;102715.28;5012368;28;20145;-60
2022/03/07 03:27:32;;;;;;;10.63;9.63;;;;;;;-3.55;96.48;102711.63;5003106;28;20022;-62
2022/03/07 03:29:58;;;;;;;11.00;9.77;;;;;;;-3.56;97.23;102712.38;4992958;28;20025;-62
2022/03/07 03:32:25;;;;;;;11.60;10.40;;;;;;;-3.56;97.26;102717.44;4992660;28;20027;-61
2022/03/07 03:34:50;;;;;;;11.17;9.80;;;;;;;-3.57;97.10;102719.06;4992917;28;20030;-62
2022/03/07 03:37:15;;;;;;;11.80;10.27;;;;;;;-3.60;96.61;102716.16;4992693;28;20022;-62
2022/03/07 03:39:41;;;;;;;13.90;10.13;;;;;;;-3.63;97.43;102714.16;4993151;28;20046;-61
2022/03/07 03:42:06;;;;;;;11.17;9.93;;;;;;;-3.64;97.66;102725.03;4992669;28;20035;-61
2022/03/07 03:44:32;;;;;;;11.93;10.60;;;;;;;-3.68;97.97;102720.31;4991607;28;20022;-62
2022/03/07 03:46:57;;;;;;;11.57;10.13;;;;;;;-3.74;97.67;102729.69;4992222;28;20437;-61
2022/03/07 03:49:22;;;;;;;12.87;10.67;;;;;;;-3.77;97.98;102721.72;4992540;28;20068;-62
2022/03/07 03:51:49;;;;;;;11.87;10.67;;;;;;;-3.76;98.14;102726.09;4992654;28;20022;-61
2022/03/07 03:54:14;;;;;;;12.13;10.83;;;;;;;-3.77;98.36;102724.25;4992641;28;20058;-61
2022/03/07 03:56:40;;;;;;;13.77;10.50;;;;;;;-3.76;97.53;102723.56;4992519;28;20513;-62
2022/03/07 03:59:06;;;;;;;14.17;10.47;;;;;;;-3.76;98.20;102728.63;4992785;28;20029;-61
2022/03/07 04:01:31;;;;;;;12.50;9.93;;;;;;;-3.78;98.16;102723.34;4992101;28;20403;-62
2022/03/07 04:03:57;;;;;;;11.10;9.77;;;;;;;-3.77;97.96;102721.72;4992507;28;20026;-62
2022/03/07 04:06:22;;;;;;;11.37;10.27;;;;;;;-3.81;96.98;102727.19;4992082;28;20046;-62
2022/03/07 04:09:13;;;;;;;13.47;10.70;;;;;;;-3.81;98.17;102729.72;4992126;28;20097;-62
2022/03/07 04:11:39;;;;;;;;;;;;;;;-3.84;97.31;102726.78;4992649;28;20072;-62
2022/03/07 04:14:04;;;;;;;11.13;10.00;;;;;;;-3.87;97.65;102723.16;4992414;28;19917;-62
2022/03/07 04:16:29;;;;;;;12.33;10.53;;;;;;;-3.88;98.38;102726.41;4992371;28;20462;-62
2022/03/07 04:18:54;;;;;;;11.63;10.53;;;;;;;-3.91;98.01;102725.13;4991008;28;20569;-62
2022/03/07 04:21:20;;;;;;;13.70;10.90;;;;;;;-3.92;98.47;102719.16;4992116;28;20053;-62
2022/03/07 04:23:45;;;;;;;11.60;10.27;;;;;;;-3.91;98.90;102725.13;4992118;28;20026;-62
2022/03/07 04:26:10;;;;;;;15.03;11.23;;;;;;;-3.92;97.75;102723.34;4992310;28;20505;-62
2022/03/07 04:28:36;;;;;;;12.70;10.87;;;;;;;-3.93;98.38;102726.56;4992095;28;20109;-62
2022/03/07 04:31:01;;;;;;;12.77;10.77;;;;;;;-3.93;98.17;102718.97;4991299;28;20112;-61
2022/03/07 04:33:27;;;;;;;13.70;10.87;;;;;;;-3.96;98.49;102717.00;4992222;28;20010;-61
2022/03/07 04:35:52;;;;;;;14.27;10.40;;;;;;;-3.96;98.81;102717.00;4992012;28;20050;-62
2022/03/07 04:38:18;;;;;;;13.37;11.47;;;;;;;-3.97;98.83;102720.22;4991791;28;20069;-60
2022/03/07 04:40:44;;;;;;;11.77;10.50;;;;;;;-3.96;98.09;102718.59;4991622;28;20501;-61
2022/03/07 04:43:09;;;;;;;12.90;11.00;;;;;;;-4.00;98.14;102719.88;4991532;28;20045;-61
2022/03/07 04:45:34;;;;;;;12.33;11.10;;;;;;;-4.04;99.38;102712.59;4991594;28;20430;-61
2022/03/07 04:48:00;;;;;;;12.50;10.77;;;;;;;-4.05;99.72;102715.88;4991769;28;20070;-60
2022/03/07 04:50:25;;;;;;;14.80;12.17;;;;;;;-4.05;99.90;102715.88;4991697;28;20113;-62
2022/03/07 04:52:50;;;;;;;14.70;11.57;;;;;;;-4.03;100.00;102712.78;4991364;28;20062;-60
2022/03/07 04:55:16;;;;;;;13.13;11.73;;;;;;;-4.01;99.62;102713.00;4991528;28;20030;-61
2022/03/07 04:57:43;;;;;;;16.20;12.27;;;;;;;-4.01;100.00;102710.47;4992122;28;20474;-61
2022/03/07 05:00:11;;;;;;;15.10;12.50;;;;;;;-4.01;100.00;102718.06;4991634;28;20489;-61
2022/03/07 05:02:36;;;;;;;14.10;11.83;;;;;;;-4.00;100.00;102714.78;4990877;28;20031;-61
2022/03/07 05:05:02;;;;;;;14.27;11.80;;;;;;;-3.98;100.00;102723.50;4991241;28;20055;-61
2022/03/07 05:07:28;;;;;;;12.77;11.67;;;;;;;-3.96;100.00;102726.22;4991751;28;20442;-59
2022/03/07 05:09:53;;;;;;;13.27;11.87;;;;;;;-3.96;100.00;102721.16;4991448;28;20057;-60
2022/03/07 05:12:18;;;;;;;13.10;11.87;;;;;;;-3.96;100.00;102718.59;4991054;28;20026;-61
2022/03/07 05:14:44;;;;;;;12.70;11.40;;;;;;;-3.98;100.00;102715.91;4991134;28;20106;-62
2022/03/07 05:17:09;;;;;;;13.53;12.23;;;;;;;-4.00;100.00;102712.25;4991053;28;20536;-60
2022/03/07 05:19:34;;;;;;;14.50;13.00;;;;;;;-4.05;100.00;102703.19;4991296;28;20027;-60
2022/03/07 05:22:00;;;;;;;15.23;12.60;;;;;;;-4.03;100.00;102716.97;4990766;28;20029;-61
2022/03/07 05:24:25;;;;;;;14.80;12.37;;;;;;;-4.04;100.00;102707.53;4990572;28;20075;-60
2022/03/07 05:26:51;;;;;;;12.63;11.27;;;;;;;-4.02;100.00;102713.69;4990689;28;20026;-61
2022/03/07 05:29:17;;;;;;;14.73;12.97;;;;;;;-4.02;100.00;102709.56;4990663;28;20030;-58
2022/03/07 05:31:42;;;;;;;13.57;12.30;;;;;;;-4.03;100.00;102710.25;4990594;28;20032;-61
2022/03/07 05:34:08;;;;;;;14.43;12.80;;;;;;;-4.03;100.00;102706.84;4990574;28;20030;-61
2022/03/07 05:36:33;;;;;;;13.00;11.70;;;;;;;-4.04;100.00;102710.06;4990780;28;20097;-60
2022/03/07 05:38:58;;;;;;;13.37;12.07;;;;;;;-4.03;100.00;102714.44;4990678;28;20078;-62
2022/03/07 05:41:24;;;;;;;15.00;12.70;;;;;;;-4.04;100.00;102717.66;4990563;28;20089;-61
2022/03/07 05:43:49;;;;;;;14.50;12.07;;;;;;;-4.05;100.00;102721.84;4990684;28;20494;-63
2022/03/07 05:46:14;;;;;;;16.43;13.37;;;;;;;-4.09;100.00;102714.59;4990392;28;20030;-61
2022/03/07 05:48:40;;;;;;;14.57;12.10;;;;;;;-4.08;100.00;102718.03;4990325;28;20478;-60
2022/03/07 05:51:05;;;;;;;14.87;12.87;;;;;;;-4.07;100.00;102722.38;4990365;28;20018;-61
2022/03/07 05:53:30;;;;;;;14.30;12.53;;;;;;;-4.09;100.00;102714.59;4990616;28;20157;-61
2022/03/07 05:55:56;;;;;;;15.50;12.97;;;;;;;-4.10;100.00;102713.66;4989149;28;20036;-60
2022/03/07 05:58:21;;;;;;;16.13;13.40;;;;;;;-4.08;100.00;102720.56;4988645;28;20041;-61
2022/03/07 06:00:47;;;;;;;14.10;12.80;;;;;;;-4.08;100.00;102723.97;4988254;28;20442;-61
2022/03/07 06:03:12;;;;;;;15.30;12.80;;;;;;;-4.10;100.00;102723.81;4987030;28;20030;-60
2022/03/07 06:05:38;;;;;;;16.60;13.50;;;;;;;-4.10;100.00;102728.88;4987424;28;20699;-61
2022/03/07 06:08:05;;;;;;;13.80;12.37;;;;;;;-4.10;100.00;102733.94;4988150;28;20034;-61
2022/03/07 06:10:31;;;;;;;15.53;13.60;;;;;;;-4.11;100.00;102732.13;4990364;28;20026;-61
2022/03/07 06:12:56;;;;;;;13.67;12.33;;;;;;;-4.12;100.00;102735.38;4990531;28;20418;-61
2022/03/07 06:15:22;;;;;;;17.63;12.63;;;;;;;-4.12;100.00;102737.03;4989727;28;20041;-61
2022/03/07 06:17:52;;;;;;;13.03;11.60;;;;;;;-4.14;100.00;102748.59;4989705;28;20036;-58
2022/03/07 06:20:22;;;;;;;16.00;13.20;;;;;;;-4.14;100.00;102752.03;4989767;28;20437;-59
2022/03/07 06:22:47;;;;;;;15.07;13.40;;;;;;;-4.16;100.00;102750.94;4989798;28;20019;-60
2022/03/07 06:25:13;;;;;;;14.60;13.00;;;;;;;-4.18;100.00;102749.84;4990000;28;20116;-58
2022/03/07 06:27:39;;;;;;;16.93;12.57;;;;;;;-4.17;99.95;102759.22;4996244;28;20053;-61
2022/03/07 06:30:05;;;;;;;13.67;12.27;;;;;;;-4.17;100.00;102756.69;4994403;28;20485;-61
2022/03/07 06:32:30;;;;;;;17.30;14.07;;;;;;;-4.17;100.00;102758.34;4989353;28;20096;-61
2022/03/07 06:34:55;;;;;;;18.83;13.40;;;;;;;-4.19;99.83;102763.19;4989841;28;20019;-61
2022/03/07 06:37:21;;;;;;;15.03;12.90;;;;;;;-4.18;100.00;102761.56;4992978;28;20117;-61
2022/03/07 06:39:46;;;;;;;15.17;13.50;;;;;;;-4.18;100.00;102765.03;4997453;28;20038;-60
2022/03/07 06:42:12;;;;;;;17.50;13.07;;;;;;;-4.16;100.00;102763.59;4993535;28;20022;-61
2022/03/07 06:44:40;;;;;;;15.73;13.20;;;;;;;-4.16;100.00;102771.19;4993049;28;20018;-61
2022/03/07 06:47:10;;;;;;;18.40;14.47;;;;;;;-4.17;100.00;102769.34;5006900;28;20025;-61
2022/03/07 06:49:35;;;;;;;16.57;14.63;;;;;;;-4.16;100.00;102768.66;5001600;28;20026;-61
2022/03/07 06:52:01;;;;;;;18.23;13.73;;;;;;;-4.16;100.00;102776.25;4992815;28;20026;-59
2022/03/07 06:54:26;;;;;;;14.30;12.40;;;;;;;-4.13;100.00;102769.03;4994984;28;20034;-61
2022/03/07 06:56:51;;;;;;;17.37;13.47;;;;;;;-4.08;100.00;102776.28;4993001;28;20040;-60
2022/03/07 06:59:17;;;;;;;18.30;13.37;;;;;;;-4.06;100.00;102775.75;4992807;28;20065;-59
2022/03/07 07:01:42;;;;;;;15.40;13.80;;;;;;;-3.98;100.00;102770.00;4993638;28;20058;-61
2022/03/07 07:04:07;;;;;;;16.83;14.00;;;;;;;-3.82;100.00;102776.03;5006910;28;20161;-61
2022/03/07 07:06:33;;;;;;;20.67;13.80;;;;;;;-3.72;100.00;102771.34;4996983;28;20088;-61
2022/03/07 07:08:58;;;;;;;18.27;14.33;;;;;;;-3.66;100.00;102774.63;5012613;28;20485;-62
2022/03/07 07:11:23;;;;;;;23.57;15.33;;;;;;;-3.60;100.00;102778.63;4992636;28;20534;-61
2022/03/07 07:13:49;;;;;;;15.47;13.87;;;;;;;-3.47;100.00;102771.75;4997374;28;20116;-62
2022/03/07 07:16:14;;;;;;;16.93;13.87;;;;;;;-3.35;100.00;102772.34;4992951;28;20030;-61
2022/03/07 07:18:40;;;;;;;18.77;13.20;;;;;;;-3.24;100.00;102772.72;4998014;28;20137;-62
2022/03/07 07:21:05;;;;;;;15.20;13.57;;;;;;;-3.11;100.00;102767.47;4990741;28;20029;-60
2022/03/07 07:23:31;;;;;;;16.03;13.70;;;;;;;-2.94;100.00;102762.78;4995374;28;20025;-59
2022/03/07 07:25:56;;;;;;;16.97;14.10;;;;;;;-2.72;98.83;102767.84;5001308;28;20026;-62
2022/03/07 07:28:21;;;;;;;13.63;12.33;;;;;;;-2.11;98.01;102762.06;5001125;28;20029;-59
2022/03/07 07:30:47;;;;;;;14.50;12.53;;;;;;;-1.74;94.27;102756.78;4991880;28;20302;-61
2022/03/07 07:33:13;;;;;;;19.00;12.20;;;;;;;-1.41;92.58;102760.41;4998359;28;20398;-61
2022/03/07 07:35:38;;;;;;;170.30;34.37;;;;;;;-1.00;91.01;102753.91;4993542;28;20101;-63
2022/03/07 07:38:04;;;;;;;173.47;32.93;;;;;;;-0.76;88.14;102765.00;4987718;28;20061;-59
2022/03/07 07:40:30;;;;;;;59.30;18.13;;;;;;;-0.48;88.02;102761.97;4990221;28;20382;-60
2022/03/07 07:42:55;;;;;;;17.00;11.70;;;;;;;-0.01;86.31;102762.72;4994151;28;20231;-59
2022/03/07 07:45:21;;;;;;;13.53;10.77;;;;;;;0.59;82.71;102764.59;4991046;28;20049;-61
2022/03/07 07:47:46;;;;;;;13.13;10.73;;;;;;;1.41;80.53;102758.34;4992041;28;20037;-60
2022/03/07 07:50:11;;;;;;;11.37;10.27;;;;;;;1.78;76.61;102762.78;4990947;28;20113;-59
2022/03/07 07:52:37;;;;;;;70.23;18.43;;;;;;;2.47;75.83;102761.66;4992008;28;20024;-62
2022/03/07 07:55:04;;;;;;;85.00;17.17;;;;;;;2.88;73.32;102771.47;4993657;28;20116;-61
2022/03/07 07:57:31;;;;;;;130.77;23.83;;;;;;;2.75;70.89;102769.44;4992486;28;20026;-62
2022/03/07 07:59:56;;;;;;;78.33;18.37;;;;;;;2.72;72.28;102776.78;4993112;28;20430;-61
2022/03/07 08:02:21;;;;;;;77.87;19.50;;;;;;;2.73;71.58;102771.84;4995733;28;20042;-61
2022/03/07 08:04:47;;;;;;;28.10;12.67;;;;;;;2.93;72.29;102774.50;4994898;28;20037;-60
2022/03/07 08:07:12;;;;;;;12.87;9.77;;;;;;;3.19;70.56;102769.25;4994116;28;20054;-62
2022/03/07 08:09:38;;;;;;;11.33;10.13;;;;;;;3.32;71.63;102766.16;5006313;28;20037;-62
2022/03/07 08:12:04;;;;;;;13.13;10.40;;;;;;;3.86;69.89;102768.38;4989660;28;20044;-62
2022/03/07 08:14:29;;;;;;;10.60;9.53;;;;;;;3.91;67.79;102779.94;4990210;28;20075;-62
2022/03/07 08:16:54;;;;;;;9.83;8.93;;;;;;;4.03;67.66;102775.03;4990521;28;20164;-61
2022/03/07 08:19:19;;;;;;;11.10;10.10;;;;;;;3.91;67.08;102785.06;5009236;28;20045;-62
2022/03/07 08:21:45;;;;;;;11.57;9.43;;;;;;;4.11;66.34;102780.84;5000003;28;20033;-62
2022/03/07 08:24:10;;;;;;;14.07;11.37;;;;;;;4.24;66.16;102785.41;4990736;28;20101;-62
2022/03/07 08:26:36;;;;;;;11.23;9.80;;;;;;;4.72;65.24;102775.88;4990613;28;20119;-62
2022/03/07 08:29:01;;;;;;;9.83;8.93;;;;;;;4.53;62.52;102776.84;4990583;28;20031;-61
2022/03/07 08:31:27;;;;;;;10.53;9.53;;;;;;;4.43;62.40;102780.25;4998894;28;20054;-62
2022/03/07 08:33:52;;;;;;;10.90;9.80;;;;;;;5.00;64.01;102768.88;4990660;28;20072;-62
2022/03/07 08:36:17;;;;;;;10.90;9.15;;;;;;;5.40;62.29;102773.03;5000605;28;20029;-62
2022/03/07 08:38:43;;;;;;;8.73;7.93;;;;;;;5.74;59.51;102773.28;5010304;28;20534;-63
2022/03/07 08:41:08;;;;;;;10.47;9.57;;;;;;;4.87;58.88;102776.31;5010466;28;20026;-62
2022/03/07 08:43:33;;;;;;;9.23;8.43;;;;;;;5.31;60.53;102775.72;5010235;28;20022;-62
2022/03/07 08:45:59;;;;;;;9.45;8.48;;;;;;;5.50;59.29;102772.16;4999370;28;20054;-62
2022/03/07 08:48:25;;;;;;;10.98;8.02;;;;;;;5.41;56.77;102777.44;4990216;28;20390;-62
2022/03/07 08:50:51;;;;;;;9.52;8.52;;;;;;;4.80;59.33;102773.19;4989714;28;20019;-63
2022/03/07 08:53:17;;;;;;;9.23;8.32;;;;;;;4.71;59.02;102774.97;4990339;28;20165;-62
2022/03/07 08:55:43;;;;;;;9.98;8.00;;;;;;;4.40;59.18;102767.13;4993072;28;20476;-62
2022/03/07 08:58:08;;;;;;;8.65;7.75;;;;;;;4.83;60.77;102766.53;4990011;28;20030;-62
2022/03/07 09:00:34;;;;;;;9.45;7.65;;;;;;;4.79;57.46;102757.66;4989539;28;20029;-62
2022/03/07 09:02:59;;;;;;;8.40;7.60;;;;;;;5.10;59.97;102759.38;4989519;28;20034;-63
2022/03/07 09:05:25;;;;;;;8.05;7.35;;;;;;;5.22;58.42;102750.16;4991742;28;20074;-62
2022/03/07 09:07:50;;;;;;;9.82;7.63;;;;;;;5.60;57.98;102754.16;4989991;28;20108;-62
2022/03/07 09:10:16;;;;;;;6.93;6.32;;;;;;;5.02;54.14;102762.19;4991361;28;20478;-62
2022/03/07 09:12:41;;;;;;;8.02;6.22;;;;;;;5.46;53.99;102750.44;4994418;28;20018;-63
2022/03/07 09:15:07;;;;;;;6.72;6.03;;;;;;;5.24;52.89;102761.47;5009251;28;20097;-63
2022/03/07 09:17:32;;;;;;;6.68;5.82;;;;;;;5.70;54.00;102763.50;5008923;28;20474;-62
2022/03/07 09:19:58;;;;;;;6.00;5.30;;;;;;;4.96;53.65;102748.84;5006553;28;20040;-62
2022/03/07 09:22:27;;;;;;;6.60;6.00;;;;;;;5.14;54.54;102752.09;4994465;28;20072;-62
2022/03/07 09:24:53;;;;;;;6.65;5.90;;;;;;;5.34;53.46;102757.09;4988156;28;20027;-63
2022/03/07 09:27:19;;;;;;;6.82;6.13;;;;;;;5.46;53.30;102750.44;4988124;28;20295;-61
2022/03/07 09:29:46;;;;;;;7.50;5.97;;;;;;;5.13;52.89;102749.34;4988668;28;20397;-61
2022/03/07 09:32:12;;;;;;;6.40;5.50;;;;;;;4.64;53.37;102752.09;4999594;28;20018;-63
2022/03/07 09:34:37;;;;;;;5.78;5.00;;;;;;;4.63;53.12;102747.72;4988641;28;20382;-61
2022/03/07 09:37:04;;;;;;;6.43;4.67;;;;;;;4.59;53.83;102738.84;4990842;28;20410;-63
2022/03/07 09:39:33;;;;;;;5.75;5.15;;;;;;;4.59;53.94;102743.97;4989282;28;20022;-63
2022/03/07 09:41:59;;;;;;;5.65;4.35;;;;;;;4.64;53.49;102747.84;4993872;28;20014;-62
2022/03/07 09:44:25;;;;;;;4.80;4.40;;;;;;;4.56;53.39;102747.19;5004520;28;20026;-62
2022/03/07 09:46:50;;;;;;;5.20;4.70;;;;;;;4.55;53.81;102741.94;4990438;28;20026;-62
2022/03/07 09:49:19;;;;;;;6.67;4.43;;;;;;;4.31;53.29;102742.47;4990270;28;20065;-60
2022/03/07 09:51:44;;;;;;;5.37;4.20;;;;;;;3.95;53.49;102751.25;4996391;28;20014;-62
2022/03/07 09:54:10;;;;;;;4.67;4.27;;;;;;;3.85;55.42;102744.38;4995770;28;20080;-62
2022/03/07 09:56:35;;;;;;;5.30;4.03;;;;;;;3.98;54.15;102743.81;4991569;28;20108;-62
2022/03/07 09:59:00;;;;;;;4.70;4.20;;;;;;;4.10;54.66;102738.00;5008433;28;20526;-62
2022/03/07 10:01:26;;;;;;;4.83;3.73;;;;;;;4.19;55.08;102736.25;4994031;28;20105;-61
2022/03/07 10:04:04;;;;;;;5.47;4.33;;;;;;;4.08;54.44;102733.59;4988407;28;20029;-62
2022/03/07 10:06:31;;;;;;;5.20;4.23;;;;;;;4.08;54.05;102725.91;4988714;28;20122;-63
2022/03/07 10:09:01;;;;;;;4.43;4.03;;;;;;;3.92;53.99;102727.91;4988113;28;20062;-63
2022/03/07 10:11:28;;;;;;;4.73;4.17;;;;;;;3.60;53.47;102727.69;4987465;28;20113;-62
2022/03/07 10:13:57;;;;;;;5.33;3.87;;;;;;;3.56;54.48;102724.72;4988672;28;20360;-62
2022/03/07 10:16:23;;;;;;;5.23;3.90;;;;;;;3.63;55.18;102721.03;4987508;28;20030;-62
2022/03/07 10:18:52;;;;;;;5.33;3.97;;;;;;;3.67;54.63;102726.56;4988658;28;20023;-62
2022/03/07 10:21:25;;;;;;;6.13;3.70;;;;;;;3.76;54.80;102720.50;4988276;28;20030;-63
2022/03/07 10:23:54;;;;;;;4.97;3.50;;;;;;;3.88;54.77;102723.25;4988335;28;20511;-63
2022/03/07 10:26:20;;;;;;;3.77;3.47;;;;;;;3.83;54.13;102716.03;4987653;28;20121;-62
2022/03/07 10:28:56;;;;;;;3.60;3.23;;;;;;;3.75;53.73;102722.13;4988492;28;20461;-62
2022/03/07 10:31:23;;;;;;;4.30;3.53;;;;;;;3.82;54.33;102721.94;4987933;28;20362;-61
2022/03/07 10:34:04;;;;;;;4.23;3.83;;;;;;;3.98;54.02;102715.59;4990387;28;20081;-60
2022/03/07 10:36:48;;;;;;;4.57;3.25;;;;;;;4.08;54.31;102710.50;4988568;28;20056;-62
2022/03/07 10:39:22;;;;;;;5.77;3.60;;;;;;;4.23;53.86;102701.50;4988524;28;20034;-62
2022/03/07 10:41:48;;;;;;;4.20;3.43;;;;;;;4.19;53.98;102705.47;4988528;28;20034;-62
2022/03/07 10:44:24;;;;;;;5.10;3.60;;;;;;;4.19;53.27;102695.19;4988502;28;20105;-62
2022/03/07 10:46:50;;;;;;;5.33;3.57;;;;;;;4.22;53.64;102694.53;4987900;28;20041;-62
2022/03/07 10:49:19;;;;;;;4.70;4.10;;;;;;;4.02;53.18;102686.91;4991833;28;20026;-63
2022/03/07 10:51:54;;;;;;;4.80;4.30;;;;;;;4.06;53.72;102688.06;5009363;28;20034;-62
2022/03/07 10:54:20;;;;;;;4.33;3.87;;;;;;;4.21;54.22;102688.50;5005251;28;20034;-61
2022/03/07 10:56:51;;;;;;;4.27;3.87;;;;;;;4.35;54.33;102676.00;4989277;28;20034;-63
2022/03/07 10:59:33;;;;;;;4.57;4.00;;;;;;;4.54;53.21;102668.22;4990426;28;20041;-62
2022/03/07 11:02:17;;;;;;;6.13;3.70;;;;;;;4.72;53.99;102668.88;4989166;28;20037;-62
2022/03/07 11:04:48;;;;;;;5.20;4.00;;;;;;;4.90;53.77;102667.00;4988216;28;20033;-62
2022/03/07 11:07:13;;;;;;;6.55;4.10;;;;;;;4.94;52.18;102668.16;5008121;28;20165;-60
2022/03/07 11:09:40;;;;;;;4.88;3.30;;;;;;;4.87;52.26;102650.41;4996318;28;20501;-62
2022/03/07 11:12:09;;;;;;;4.93;4.25;;;;;;;4.95;52.58;102651.94;4993169;28;20034;-63